createdAt,value
2018-01-18T00:00:26.644Z,47.40
2018-01-18T00:02:55.132Z,47.40
2018-01-18T00:05:22.755Z,47.40
2018-01-18T00:07:50.260Z,47.50
2018-01-18T00:10:17.709Z,47.40
2018-01-18T00:12:45.173Z,47.40
2018-01-18T00:15:12.611Z,47.50
2018-01-18T00:17:40.068Z,47.40
2018-01-18T00:20:07.628Z,47.50
2018-01-18T00:22:35.269Z,47.50
2018-01-18T00:25:02.755Z,47.50
2018-01-18T00:27:30.220Z,47.50
2018-01-18T00:29:58.431Z,47.50
2018-01-18T00:32:26.149Z,47.50
2018-01-18T00:34:53.705Z,47.50
2018-01-18T00:37:21.152Z,47.50
2018-01-18T00:39:48.713Z,47.60
2018-01-18T00:42:16.306Z,47.60
2018-01-18T00:44:43.820Z,47.50
2018-01-18T00:47:11.430Z,47.50
2018-01-18T00:49:38.887Z,47.60
2018-01-18T00:52:06.429Z,47.60
2018-01-18T00:54:33.886Z,47.60
2018-01-18T00:57:01.340Z,47.50
2018-01-18T00:59:28.792Z,47.50
2018-01-18T01:01:56.240Z,47.50
2018-01-18T01:04:23.902Z,47.60
2018-01-18T01:06:51.348Z,47.60
2018-01-18T01:09:18.811Z,47.60
2018-01-18T01:11:47.172Z,47.60
2018-01-18T01:14:14.782Z,47.60
2018-01-18T01:16:42.220Z,47.60
2018-01-18T01:19:09.671Z,47.60
2018-01-18T01:21:37.121Z,47.60
2018-01-18T01:24:04.573Z,47.60
2018-01-18T01:26:32.021Z,47.60
2018-01-18T01:28:59.488Z,47.60
2018-01-18T01:31:26.933Z,47.60
2018-01-18T01:33:54.378Z,47.50
2018-01-18T01:36:21.852Z,47.50
2018-01-18T01:38:49.293Z,47.60
2018-01-18T01:41:16.751Z,47.50
2018-01-18T01:43:44.200Z,47.60
2018-01-18T01:46:11.906Z,47.50
2018-01-18T01:48:39.405Z,47.50
2018-01-18T01:51:06.861Z,47.50
2018-01-18T01:53:35.076Z,47.60
2018-01-18T01:56:02.704Z,47.50
2018-01-18T01:58:30.156Z,47.60
2018-01-18T02:00:58.545Z,48.20
2018-01-18T02:03:25.999Z,47.60
2018-01-18T02:05:53.459Z,47.60
2018-01-18T02:08:20.915Z,47.60
2018-01-18T02:10:49.296Z,47.60
2018-01-18T02:13:16.850Z,47.60
2018-01-18T02:15:45.132Z,47.70
2018-01-18T02:18:12.683Z,47.70
2018-01-18T02:20:40.310Z,48.30
2018-01-18T02:23:07.780Z,47.80
2018-01-18T02:25:35.224Z,47.70
2018-01-18T02:28:02.681Z,47.70
2018-01-18T02:30:30.286Z,47.70
2018-01-18T02:32:57.940Z,47.70
2018-01-18T02:35:25.394Z,47.70
2018-01-18T02:37:52.858Z,47.80
2018-01-18T02:40:20.326Z,47.80
2018-01-18T02:42:48.046Z,47.80
2018-01-18T02:45:15.482Z,47.80
2018-01-18T02:47:43.703Z,47.80
2018-01-18T02:50:11.152Z,47.80
2018-01-18T02:52:38.621Z,47.80
2018-01-18T02:55:06.263Z,47.80
2018-01-18T02:57:33.798Z,47.80
2018-01-18T03:00:01.312Z,47.80
2018-01-18T03:02:28.768Z,47.80
2018-01-18T03:04:56.532Z,47.80
2018-01-18T03:07:24.172Z,47.70
2018-01-18T03:09:51.748Z,47.70
2018-01-18T03:12:19.204Z,47.70
2018-01-18T03:14:46.652Z,47.70
2018-01-18T03:17:14.439Z,47.70
2018-01-18T03:19:42.068Z,47.60
2018-01-18T03:22:09.524Z,47.60
2018-01-18T03:24:36.968Z,47.70
2018-01-18T03:27:04.440Z,47.70
2018-01-18T03:29:31.968Z,47.60
2018-01-18T03:31:59.425Z,47.60
2018-01-18T03:34:26.880Z,47.60
2018-01-18T03:36:54.400Z,47.60
2018-01-18T03:39:21.968Z,47.60
2018-01-18T03:41:49.424Z,47.70
2018-01-18T03:44:16.873Z,47.70
2018-01-18T03:46:44.542Z,47.80
2018-01-18T03:49:11.996Z,47.80
2018-01-18T03:51:39.642Z,47.80
2018-01-18T03:54:07.103Z,47.80
2018-01-18T03:56:34.589Z,47.80
2018-01-18T03:59:02.316Z,47.80
2018-01-18T04:01:29.760Z,47.80
2018-01-18T04:03:57.282Z,47.80
2018-01-18T04:06:24.724Z,47.80
2018-01-18T04:08:52.184Z,47.80
2018-01-18T04:11:19.636Z,47.80
2018-01-18T04:13:47.089Z,48.40
2018-01-18T04:16:14.657Z,47.80
2018-01-18T04:18:42.292Z,47.80
2018-01-18T04:21:09.741Z,47.80
2018-01-18T04:23:37.200Z,47.70
2018-01-18T04:26:04.796Z,47.70
2018-01-18T04:28:32.453Z,47.80
2018-01-18T04:30:59.906Z,47.80
2018-01-18T04:33:27.354Z,47.80
2018-01-18T04:35:54.813Z,47.70
2018-01-18T04:38:22.271Z,47.80
2018-01-18T04:40:49.849Z,47.80
2018-01-18T04:43:17.300Z,47.80
2018-01-18T04:45:44.743Z,47.70
2018-01-18T04:48:12.197Z,47.60
2018-01-18T04:50:39.665Z,47.80
2018-01-18T04:53:07.140Z,47.80
2018-01-18T04:55:34.592Z,47.80
2018-01-18T04:58:02.045Z,47.70
2018-01-18T05:00:29.817Z,47.70
2018-01-18T05:02:57.268Z,47.70
2018-01-18T05:05:24.724Z,47.70
2018-01-18T05:07:52.180Z,47.70
2018-01-18T05:10:19.641Z,47.70
2018-01-18T05:12:47.097Z,47.70
2018-01-18T05:15:14.569Z,47.70
2018-01-18T05:17:42.016Z,47.60
2018-01-18T05:20:09.472Z,47.60
2018-01-18T05:22:37.120Z,47.70
2018-01-18T05:25:04.712Z,47.70
2018-01-18T05:27:32.168Z,47.60
2018-01-18T05:29:59.806Z,47.70
2018-01-18T05:32:27.382Z,47.20
2018-01-18T05:34:54.840Z,46.10
2018-01-18T05:37:22.296Z,44.40
2018-01-18T05:39:49.756Z,43.90
2018-01-18T05:42:17.408Z,41.10
2018-01-18T05:44:44.849Z,40.50
2018-01-18T05:47:12.310Z,39.50
2018-01-18T05:49:39.776Z,39.50
2018-01-18T05:52:07.353Z,39.70
2018-01-18T05:54:35.121Z,39.80
2018-01-18T05:57:02.658Z,40.10
2018-01-18T05:59:30.114Z,38.90
2018-01-18T06:01:57.572Z,39.10
2018-01-18T06:04:25.140Z,38.70
2018-01-18T06:06:52.629Z,38.40
2018-01-18T06:09:20.086Z,38.80
2018-01-18T06:11:47.548Z,39.20
2018-01-18T06:14:15.002Z,40.70
2018-01-18T06:16:42.461Z,41.20
2018-01-18T06:19:10.794Z,43.90
2018-01-18T06:21:38.251Z,43.90
2018-01-18T06:24:05.756Z,44.90
2018-01-18T06:26:33.308Z,44.50
2018-01-18T06:29:00.902Z,43.80
2018-01-18T06:31:29.119Z,45.40
2018-01-18T06:33:56.772Z,44.70
2018-01-18T06:36:24.364Z,44.70
2018-01-18T06:38:51.993Z,44.90
2018-01-18T06:41:19.456Z,45.30
2018-01-18T06:43:46.911Z,45.70
2018-01-18T06:46:14.533Z,45.70
2018-01-18T06:48:42.289Z,45.80
2018-01-18T06:51:09.744Z,45.80
2018-01-18T06:53:37.207Z,45.70
2018-01-18T06:56:04.664Z,45.80
2018-01-18T06:58:32.334Z,45.90
2018-01-18T07:00:59.787Z,45.90
2018-01-18T07:03:27.245Z,46.00
2018-01-18T07:05:54.712Z,46.00
2018-01-18T07:08:22.176Z,46.20
2018-01-18T07:10:49.616Z,46.20
2018-01-18T07:13:17.078Z,46.20
2018-01-18T07:15:44.608Z,46.30
2018-01-18T07:18:12.242Z,46.20
2018-01-18T07:20:39.749Z,46.20
2018-01-18T07:23:07.202Z,46.20
2018-01-18T07:25:34.752Z,46.30
2018-01-18T07:28:02.334Z,46.40
2018-01-18T07:30:29.785Z,46.50
2018-01-18T07:32:57.274Z,46.60
2018-01-18T07:35:25.509Z,46.60
2018-01-18T07:37:53.269Z,46.60
2018-01-18T07:40:20.900Z,46.60
2018-01-18T07:42:48.496Z,46.60
2018-01-18T07:45:15.967Z,46.70
2018-01-18T07:47:43.580Z,46.70
2018-01-18T07:50:11.049Z,46.70
2018-01-18T07:52:38.540Z,46.70
2018-01-18T07:55:06.003Z,46.70
2018-01-18T07:57:34.336Z,46.70
2018-01-18T08:00:02.098Z,47.30
2018-01-18T08:02:29.525Z,46.70
2018-01-18T08:04:57.748Z,46.70
2018-01-18T08:07:25.213Z,46.70
2018-01-18T08:09:52.692Z,46.70
2018-01-18T08:12:20.136Z,46.70
2018-01-18T08:14:47.912Z,46.70
2018-01-18T08:17:15.364Z,46.70
2018-01-18T08:19:42.828Z,46.70
2018-01-18T08:22:10.280Z,46.70
2018-01-18T08:24:37.755Z,46.70
2018-01-18T08:27:05.225Z,46.60
2018-01-18T08:29:32.847Z,46.60
2018-01-18T08:32:00.587Z,46.60
2018-01-18T08:34:28.096Z,46.60
2018-01-18T08:36:55.540Z,46.60
2018-01-18T08:39:23.005Z,46.60
2018-01-18T08:41:50.459Z,46.60
2018-01-18T08:44:17.929Z,46.60
2018-01-18T08:46:45.371Z,46.60
2018-01-18T08:49:12.845Z,46.60
2018-01-18T08:51:40.386Z,46.60
2018-01-18T08:54:07.848Z,46.60
2018-01-18T08:56:35.296Z,46.60
2018-01-18T08:59:02.756Z,46.60
2018-01-18T09:01:30.525Z,46.60
2018-01-18T09:03:58.154Z,46.60
2018-01-18T09:06:25.692Z,46.60
2018-01-18T09:08:53.149Z,46.60
2018-01-18T09:11:20.604Z,46.60
2018-01-18T09:13:48.063Z,46.60
2018-01-18T09:16:15.521Z,46.60
2018-01-18T09:18:42.978Z,47.20
2018-01-18T09:21:10.432Z,46.60
2018-01-18T09:23:37.876Z,46.60
2018-01-18T09:26:05.341Z,47.20
2018-01-18T09:28:33.700Z,46.60
2018-01-18T09:31:01.173Z,46.60
2018-01-18T09:33:28.620Z,46.60
2018-01-18T09:35:56.080Z,47.20
2018-01-18T09:38:23.525Z,46.60
2018-01-18T09:40:50.982Z,46.60
2018-01-18T09:43:18.435Z,46.60
2018-01-18T09:45:45.885Z,46.50
2018-01-18T09:48:13.337Z,46.60
2018-01-18T09:50:40.798Z,46.60
2018-01-18T09:53:08.273Z,47.20
2018-01-18T09:55:35.750Z,46.60
2018-01-18T09:58:03.292Z,46.60
2018-01-18T10:00:30.737Z,46.60
2018-01-18T10:02:58.216Z,46.50
2018-01-18T10:05:25.667Z,46.60
2018-01-18T10:07:53.125Z,46.60
2018-01-18T10:10:20.577Z,46.60
2018-01-18T10:12:48.034Z,46.60
2018-01-18T10:15:15.476Z,46.60
2018-01-18T10:17:42.936Z,46.60
2018-01-18T10:20:10.421Z,46.60
2018-01-18T10:22:37.872Z,46.60
2018-01-18T10:25:05.336Z,46.60
2018-01-18T10:27:32.975Z,47.20
2018-01-18T10:30:00.423Z,46.60
2018-01-18T10:32:28.038Z,46.60
2018-01-18T10:34:55.760Z,46.70
2018-01-18T10:37:23.148Z,46.70
2018-01-18T10:39:50.607Z,46.70
2018-01-18T10:42:18.061Z,46.70
2018-01-18T10:44:45.517Z,46.70
2018-01-18T10:47:13.053Z,46.70
2018-01-18T10:49:40.509Z,46.70
2018-01-18T10:52:07.964Z,46.60
2018-01-18T10:54:35.425Z,46.60
2018-01-18T10:57:02.872Z,46.60
2018-01-18T10:59:30.344Z,46.60
2018-01-18T11:01:57.817Z,46.60
2018-01-18T11:04:25.283Z,46.60
2018-01-18T11:06:52.721Z,46.70
2018-01-18T11:09:20.182Z,46.70
2018-01-18T11:11:47.929Z,46.60
2018-01-18T11:14:15.388Z,46.60
2018-01-18T11:16:42.840Z,46.60
2018-01-18T11:19:10.621Z,46.60
2018-01-18T11:21:38.260Z,46.70
2018-01-18T11:24:05.725Z,46.70
2018-01-18T11:26:33.170Z,46.70
2018-01-18T11:29:00.625Z,46.70
2018-01-18T11:31:28.595Z,46.60
2018-01-18T11:33:56.002Z,46.60
2018-01-18T11:36:23.641Z,46.70
2018-01-18T11:38:51.088Z,46.60
2018-01-18T11:41:18.552Z,46.70
2018-01-18T11:43:46.009Z,46.70
2018-01-18T11:46:13.465Z,46.70
2018-01-18T11:48:40.913Z,46.70
2018-01-18T11:51:08.497Z,46.70
2018-01-18T11:53:36.134Z,46.70
2018-01-18T11:56:03.591Z,46.70
2018-01-18T11:58:31.182Z,46.70
2018-01-18T12:00:58.656Z,46.70
2018-01-18T12:03:26.396Z,46.70
2018-01-18T12:05:54.038Z,46.60
2018-01-18T12:08:21.537Z,46.60
2018-01-18T12:10:48.994Z,46.60
2018-01-18T12:13:16.456Z,46.60
2018-01-18T12:15:43.905Z,46.60
2018-01-18T12:18:11.374Z,46.60
2018-01-18T12:20:38.848Z,46.60
2018-01-18T12:23:06.308Z,46.60
2018-01-18T12:25:33.870Z,46.60
2018-01-18T12:28:01.605Z,46.60
2018-01-18T12:30:29.380Z,46.60
2018-01-18T12:32:56.855Z,46.60
2018-01-18T12:35:24.496Z,46.60
2018-01-18T12:37:52.215Z,46.60
2018-01-18T12:40:19.656Z,46.60
2018-01-18T12:42:47.136Z,46.60
2018-01-18T12:45:14.730Z,46.60
2018-01-18T12:47:42.189Z,46.60
2018-01-18T12:50:09.640Z,46.60
2018-01-18T12:52:37.280Z,46.60
2018-01-18T12:55:04.744Z,46.60
2018-01-18T12:57:32.201Z,46.50
2018-01-18T12:59:59.779Z,46.50
2018-01-18T13:02:27.233Z,46.50
2018-01-18T13:04:54.701Z,46.50
2018-01-18T13:07:22.144Z,46.50
2018-01-18T13:09:49.596Z,46.50
2018-01-18T13:12:17.052Z,46.50
2018-01-18T13:14:44.511Z,45.70
2018-01-18T13:17:12.166Z,45.40
2018-01-18T13:19:39.624Z,45.40
2018-01-18T13:22:07.072Z,45.90
2018-01-18T13:24:34.532Z,46.00
2018-01-18T13:27:01.992Z,46.10
2018-01-18T13:29:29.628Z,46.20
2018-01-18T13:31:57.238Z,46.40
2018-01-18T13:34:24.693Z,46.30
2018-01-18T13:36:52.146Z,46.20
2018-01-18T13:39:19.609Z,46.00
2018-01-18T13:41:47.080Z,46.00
2018-01-18T13:44:14.548Z,46.20
2018-01-18T13:46:41.997Z,46.10
2018-01-18T13:49:09.452Z,46.00
2018-01-18T13:51:36.910Z,46.30
2018-01-18T13:54:04.357Z,46.40
2018-01-18T13:56:31.832Z,46.50
2018-01-18T13:58:59.280Z,46.40
2018-01-18T14:01:26.737Z,46.40
2018-01-18T14:03:54.197Z,46.30
2018-01-18T14:06:21.649Z,46.10
2018-01-18T14:08:49.108Z,45.80
2018-01-18T14:11:16.565Z,45.60
2018-01-18T14:13:44.009Z,45.70
2018-01-18T14:16:11.589Z,45.70
2018-01-18T14:18:39.040Z,45.90
2018-01-18T14:21:06.512Z,45.80
2018-01-18T14:23:33.965Z,45.80
2018-01-18T14:26:01.433Z,46.00
2018-01-18T14:28:28.877Z,46.40
2018-01-18T14:30:56.341Z,46.10
2018-01-18T14:33:23.797Z,46.20
2018-01-18T14:35:51.555Z,46.80
2018-01-18T14:38:19.012Z,47.00
2018-01-18T14:40:46.677Z,46.70
2018-01-18T14:43:14.133Z,46.70
2018-01-18T14:45:41.587Z,46.70
2018-01-18T14:48:09.079Z,46.70
2018-01-18T14:50:36.513Z,46.70
2018-01-18T14:53:03.972Z,46.60
2018-01-18T14:55:31.528Z,46.60
2018-01-18T14:57:58.987Z,46.60
2018-01-18T15:00:26.442Z,46.60
2018-01-18T15:02:54.083Z,46.50
2018-01-18T15:05:21.668Z,46.60
2018-01-18T15:07:49.332Z,47.10
2018-01-18T15:10:16.787Z,48.70
2018-01-18T15:12:44.236Z,48.00
2018-01-18T15:15:11.708Z,47.90
2018-01-18T15:17:39.269Z,48.10
2018-01-18T15:20:06.725Z,47.90
2018-01-18T15:22:34.184Z,47.80
2018-01-18T15:25:01.635Z,47.70
2018-01-18T15:27:29.284Z,47.70
2018-01-18T15:29:56.732Z,47.80
2018-01-18T15:32:24.208Z,47.90
2018-01-18T15:34:51.668Z,48.00
2018-01-18T15:37:19.139Z,47.90
2018-01-18T15:39:46.620Z,48.10
2018-01-18T15:42:14.060Z,48.30
2018-01-18T15:44:42.420Z,48.20
2018-01-18T15:47:09.942Z,48.20
2018-01-18T15:49:37.357Z,48.30
2018-01-18T15:52:05.624Z,48.90
2018-01-18T15:54:33.160Z,48.30
2018-01-18T15:57:00.614Z,48.50
2018-01-18T15:59:28.076Z,48.30
2018-01-18T16:01:55.536Z,48.30
2018-01-18T16:04:22.998Z,48.20
2018-01-18T16:06:50.457Z,47.90
2018-01-18T16:09:17.920Z,47.80
2018-01-18T16:11:45.403Z,47.80
2018-01-18T16:14:12.957Z,47.90
2018-01-18T16:16:40.429Z,47.90
2018-01-18T16:19:07.910Z,47.90
2018-01-18T16:21:35.394Z,47.80
2018-01-18T16:24:02.826Z,47.70
2018-01-18T16:26:30.289Z,47.70
2018-01-18T16:28:58.018Z,47.70
2018-01-18T16:31:25.474Z,47.70
2018-01-18T16:33:52.916Z,47.70
2018-01-18T16:36:20.377Z,47.70
2018-01-18T16:38:48.022Z,47.70
2018-01-18T16:41:15.509Z,47.60
2018-01-18T16:43:42.960Z,47.70
2018-01-18T16:46:10.425Z,47.70
2018-01-18T16:48:37.881Z,47.70
2018-01-18T16:51:05.349Z,47.70
2018-01-18T16:53:32.803Z,47.70
2018-01-18T16:56:00.261Z,47.70
2018-01-18T16:58:27.709Z,47.70
2018-01-18T17:00:55.269Z,47.70
2018-01-18T17:03:22.741Z,47.60
2018-01-18T17:05:50.197Z,47.50
2018-01-18T17:08:17.657Z,47.60
2018-01-18T17:10:45.128Z,47.50
2018-01-18T17:13:12.780Z,47.50
2018-01-18T17:15:40.253Z,47.60
2018-01-18T17:18:07.709Z,47.60
2018-01-18T17:20:35.187Z,47.50
2018-01-18T17:23:02.636Z,47.50
2018-01-18T17:25:30.100Z,47.40
2018-01-18T17:27:57.552Z,47.40
2018-01-18T17:30:25.001Z,47.80
2018-01-18T17:32:52.525Z,47.90
2018-01-18T17:35:20.001Z,48.10
2018-01-18T17:37:47.747Z,48.10
2018-01-18T17:40:15.206Z,48.00
2018-01-18T17:42:42.698Z,48.20
2018-01-18T17:45:10.139Z,48.50
2018-01-18T17:47:37.700Z,50.00
2018-01-18T17:50:05.312Z,51.80
2018-01-18T17:52:32.757Z,53.70
2018-01-18T17:55:00.212Z,52.80
2018-01-18T17:57:27.730Z,53.50
2018-01-18T17:59:55.181Z,53.00
2018-01-18T18:02:22.783Z,53.00
2018-01-18T18:04:51.357Z,54.60
2018-01-18T18:07:18.825Z,54.50
2018-01-18T18:09:46.425Z,53.60
2018-01-18T18:12:13.924Z,51.10
2018-01-18T18:14:41.378Z,49.30
2018-01-18T18:17:09.647Z,48.60
2018-01-18T18:19:37.401Z,48.60
2018-01-18T18:22:04.980Z,48.60
2018-01-18T18:24:32.434Z,48.50
2018-01-18T18:26:59.891Z,49.60
2018-01-18T18:29:27.357Z,50.20
2018-01-18T18:31:54.804Z,49.80
2018-01-18T18:34:22.278Z,49.40
2018-01-18T18:36:49.822Z,49.30
2018-01-18T18:39:17.295Z,49.30
2018-01-18T18:41:44.869Z,49.20
2018-01-18T18:44:13.116Z,49.30
2018-01-18T18:46:40.636Z,49.30
2018-01-18T18:49:08.301Z,49.20
2018-01-18T18:51:35.755Z,49.10
2018-01-18T18:54:03.245Z,49.00
2018-01-18T18:56:30.879Z,49.00
2018-01-18T18:58:58.340Z,49.10
2018-01-18T19:01:25.797Z,49.00
2018-01-18T19:03:53.261Z,49.00
2018-01-18T19:06:20.717Z,49.20
2018-01-18T19:08:48.172Z,49.30
2018-01-18T19:11:15.763Z,49.40
2018-01-18T19:13:43.233Z,49.40
2018-01-18T19:16:10.689Z,49.30
2018-01-18T19:18:38.149Z,49.30
2018-01-18T19:21:05.651Z,49.30
2018-01-18T19:23:33.126Z,49.30
2018-01-18T19:26:00.657Z,49.40
2018-01-18T19:28:28.884Z,49.60
2018-01-18T19:30:56.342Z,49.60
2018-01-18T19:33:23.793Z,49.60
2018-01-18T19:35:51.254Z,49.70
2018-01-18T19:38:18.917Z,49.80
2018-01-18T19:40:46.377Z,49.90
2018-01-18T19:43:13.816Z,50.00
2018-01-18T19:45:41.284Z,50.00
2018-01-18T19:48:08.856Z,49.80
2018-01-18T19:50:36.312Z,49.90
2018-01-18T19:53:03.759Z,50.00
2018-01-18T19:55:31.220Z,50.00
2018-01-18T19:57:58.677Z,50.10
2018-01-18T20:00:26.153Z,50.20
2018-01-18T20:02:53.604Z,50.20
2018-01-18T20:05:21.265Z,50.30
2018-01-18T20:07:48.736Z,50.30
2018-01-18T20:10:17.112Z,50.40
2018-01-18T20:12:44.561Z,50.40
2018-01-18T20:15:12.112Z,50.40
2018-01-18T20:17:40.504Z,50.40
2018-01-18T20:20:07.956Z,50.30
2018-01-18T20:22:35.412Z,50.30
2018-01-18T20:25:02.877Z,50.40
2018-01-18T20:27:30.337Z,51.00
2018-01-18T20:29:57.780Z,50.40
2018-01-18T20:32:25.240Z,50.40
2018-01-18T20:34:52.693Z,50.40
2018-01-18T20:37:20.197Z,50.40
2018-01-18T20:39:47.640Z,50.80
2018-01-18T20:42:15.117Z,50.80
2018-01-18T20:44:42.580Z,50.90
2018-01-18T20:47:10.187Z,51.00
2018-01-18T20:49:37.636Z,51.10
2018-01-18T20:52:05.092Z,51.20
2018-01-18T20:54:32.556Z,51.20
2018-01-18T20:57:00.012Z,51.30
2018-01-18T20:59:27.469Z,51.40
2018-01-18T21:01:54.926Z,51.30
2018-01-18T21:04:22.453Z,51.30
2018-01-18T21:06:49.993Z,51.30
2018-01-18T21:09:17.449Z,51.30
2018-01-18T21:11:45.503Z,51.40
2018-01-18T21:14:12.960Z,51.40
2018-01-18T21:16:40.607Z,51.40
2018-01-18T21:19:08.060Z,51.40
2018-01-18T21:21:35.513Z,51.30
2018-01-18T21:24:03.053Z,51.30
2018-01-18T21:26:30.572Z,51.30
2018-01-18T21:28:58.038Z,51.30
2018-01-18T21:31:25.493Z,51.30
2018-01-18T21:33:52.961Z,51.50
2018-01-18T21:36:20.485Z,48.30
2018-01-18T21:38:48.050Z,37.50
2018-01-18T21:41:15.724Z,35.30
2018-01-18T21:43:43.326Z,39.10
2018-01-18T21:46:10.784Z,39.40
2018-01-18T21:48:38.329Z,39.70
2018-01-18T21:51:05.781Z,40.00
2018-01-18T21:53:33.250Z,40.80
2018-01-18T21:56:00.987Z,40.90
2018-01-18T21:58:28.440Z,41.50
2018-01-18T22:00:55.896Z,41.80
2018-01-18T22:03:23.357Z,42.00
2018-01-18T22:05:50.825Z,42.30
2018-01-18T22:08:19.033Z,42.70
2018-01-18T22:10:46.697Z,43.00
2018-01-18T22:13:14.425Z,43.20
2018-01-18T22:15:42.188Z,43.40
2018-01-18T22:18:09.933Z,43.70
2018-01-18T22:20:37.376Z,43.90
2018-01-18T22:23:04.847Z,44.10
2018-01-18T22:25:32.313Z,44.20
2018-01-18T22:27:59.981Z,44.40
2018-01-18T22:30:27.459Z,44.60
2018-01-18T22:32:54.913Z,44.80
2018-01-18T22:35:22.368Z,45.00
2018-01-18T22:37:49.830Z,45.10
2018-01-18T22:40:17.376Z,45.30
2018-01-18T22:42:45.023Z,45.30
2018-01-18T22:45:12.497Z,45.50
2018-01-18T22:47:39.953Z,45.50
2018-01-18T22:50:07.404Z,45.70
2018-01-18T22:52:34.930Z,45.80
2018-01-18T22:55:02.379Z,45.90
2018-01-18T22:57:29.893Z,45.90
2018-01-18T22:59:57.361Z,46.00
2018-01-18T23:02:24.820Z,46.10
2018-01-18T23:04:52.569Z,46.10
2018-01-18T23:07:20.025Z,46.10
2018-01-18T23:09:47.681Z,46.20
2018-01-18T23:12:15.141Z,46.30
2018-01-18T23:14:42.597Z,46.30
2018-01-18T23:17:10.053Z,46.40
2018-01-18T23:19:37.513Z,46.50
2018-01-18T23:22:04.976Z,46.60
2018-01-18T23:24:32.429Z,46.70
2018-01-18T23:26:59.964Z,46.70
2018-01-18T23:29:27.448Z,46.80
2018-01-18T23:31:54.925Z,46.80
2018-01-18T23:34:22.370Z,46.90
2018-01-18T23:36:50.029Z,46.90
2018-01-18T23:39:17.488Z,46.90
2018-01-18T23:41:44.943Z,47.00
2018-01-18T23:44:12.417Z,47.00
2018-01-18T23:46:39.865Z,47.00
2018-01-18T23:49:07.333Z,47.00
2018-01-18T23:51:34.883Z,47.10
2018-01-18T23:54:02.520Z,47.10
2018-01-18T23:56:30.065Z,47.20
2018-01-18T23:58:57.525Z,47.20
